Airfield :
LOGIN :

Register | Disclaimer

   EN    FR    IT 

 










Legend :    VFR   Marginal VFR   IFR   Intensive IFR   Very Intensive IFR
Visi :
Ceiling :
>= 8 km
>= 3000ft
5 to 8 km
1000 to 3000 ft
1500m to 5 km
500 to 1000 ft
800 to 1500m
200 to 500 ft
< 800m
< 200 ft
Symbols :   Thunderstorms  Fog  Heavy snow  Heavy precipitations  Wind > 20 kt
SIGMETs :     Misc.  Thunderstorms  Icing  Turbulence  Mountain Waves  Volcanic Ashes






- Airport Elevation : 885 ft
- IATA code : BAS


LFSB - Bale-Mulhouse

CURRENT METAR :
  • 191300Z VRB03KT 7000 RA FEW013 FEW046TCU OVC070 14/12 Q1015 TEMPO 3000

EXPIRED METARs :
  • 191230Z 20004KT 160V240 7000 RA FEW013 FEW046TCU OVC066 14/12 Q1015 TEMPO 3000
  • 191200Z VRB03KT 9000 -RA FEW016 FEW046TCU OVC063 14/13 Q1015 TEMPO 3000 RA
  • 191130Z 24004KT 210V270 9999 -RA FEW016 FEW046TCU OVC063 14/13 Q1015 TEMPO 3000 RA
  • 191100Z 24005KT 9000 -RA FEW016 SCT046 OVC060 14/13 Q1015 TEMPO 3000 RA SCT025TCU
  • 191030Z 24006KT 210V270 9999 -RA FEW016 BKN046 OVC066 15/12 Q1015 TEMPO 3000 RA SCT025TCU

TAF TAF LFSB
Valid from the 19 at 12:00 until the 20 at 12:00 UTC


191100Z 1912/2012 24008KT 9999 SCT020 BKN045
PROB40
TEMPO 1912/1921 4000 RA SCT025TCU
PROB30
TEMPO 2004/2008 4000 -RA BKN014
Met : +33 3 89 90 31 11



MET'MAP, your aeronautical weather chart ! - Copyright ORBIFLY December 2007 - Disclaimer

ORBIFLY MET'MAP TEAM :

Programming & Development : Alexandra Zaïnal
Concept & original design : Baudouin d'Aumeries
Assistance for programming : Marc-Olivier Méhu
Technical & hardware support : Manuel Goepfert

Contact : metmap@orbifly.com




SOURCES & CREDITS :

   NOAA